Latest Weather Observations for Oakey

IDQ60801

Issued at 9:05 pm EST Saturday 26 July 2014 (issued every 30 minutes, with the page automatically refreshed every 10 minutes)

About weather observations | Map of weather stations | Latest weather observations for QLD | Other Formats
Station Details ID: 041359 Name: OAKEY AERO Lat: -27.40 Lon: 151.74 Height: 405.69 m
Data from the previous 72 hours. | See also: Recent months at Oakey
Date/Time
EST
Temp
°C
App
Temp
°C
Dew
Point
Rel
Hum
%
Delta-T
°C
Wind Press
QNH
hPa
Press
MSL
hPa
Rain
since 9 am
mm
Dir
 
Spd
km/h
Gust
km/h
Spd
kts
Gust
kts
26/09:00pm 12.1 11.6 10.8 92 0.7 NE 4 6 2 3 1025.5 1025.8 0.0
26/08:30pm 12.8 12.1 11.4 91 0.8 NE 6 7 3 4 1025.4 - 0.0
26/08:00pm 12.9 12.0 11.3 90 0.9 NNE 7 9 4 5 1025.4 - 0.0
26/07:30pm 13.1 13.1 11.3 89 1.0 NNE 2 6 1 3 1025.4 - 0.0
26/07:00pm 13.4 12.5 11.5 88 1.0 NE 7 9 4 5 1025.1 - 0.0
26/06:30pm 14.0 13.0 12.4 90 0.9 NW 9 11 5 6 1025.3 - 0.0
26/06:00pm 14.3 12.7 12.7 90 0.9 W 13 13 7 7 1024.9 1025.1 0.0
26/05:30pm 14.6 13.3 12.6 88 1.1 W 11 13 6 7 1024.8 - 0.0
26/05:00pm 15.2 14.7 12.7 85 1.4 W 7 7 4 4 1024.3 - 0.0
26/04:30pm 15.5 14.3 12.8 84 1.5 WSW 11 15 6 8 1024.6 - 0.0
26/04:00pm 15.9 16.5 13.2 84 1.5 N 2 6 1 3 1024.5 - 0.0
26/02:30pm 17.0 13.6 12.5 75 2.5 SW 22 26 12 14 1024.7 - 0.0
26/02:00pm 17.1 13.1 13.0 77 2.3 SW 26 35 14 19 1025.0 - 0.0
26/01:30pm 18.5 12.9 11.6 64 3.9 WSW 32 35 17 19 1024.9 - 0.0
26/01:25pm 19.4 13.0 10.7 57 4.8 W 35 46 19 25 1025.0 - 0.0
26/01:00pm 20.8 16.4 8.8 46 6.5 NW 22 28 12 15 1024.8 - 0.0
26/12:30pm 21.0 17.6 10.5 51 5.8 NNW 19 28 10 15 1025.2 - 0.0
26/12:00pm 20.9 18.4 11.0 53 5.5 W 15 24 8 13 1025.7 1026.0 0.0
26/11:30am 20.8 18.4 11.4 55 5.3 NW 15 26 8 14 1026.4 - 0.0
26/11:00am 19.7 18.0 12.5 63 4.1 N 13 19 7 10 1026.9 - 0.0
26/10:30am 18.3 16.6 12.3 68 3.4 N 13 17 7 9 1027.2 - 0.0
26/10:00am 18.0 15.5 12.2 69 3.3 NNE 17 20 9 11 1027.3 - 0.0
26/09:30am 17.1 15.9 12.8 76 2.4 NE 11 15 6 8 1027.4 - 0.0
26/09:00am 15.9 15.1 12.8 82 1.7 ENE 9 11 5 6 1027.5 1027.8 0.0
26/08:30am 14.9 14.1 12.8 87 1.2 ESE 9 9 5 5 1027.7 - 0.0
26/08:00am 13.9 13.4 12.1 89 1.0 ENE 6 9 3 5 1027.6 - 0.0
26/07:30am 12.9 11.5 12.1 95 0.4 NE 11 13 6 7 1027.4 - 0.0
26/07:00am 10.5 8.6 9.1 91 0.7 ENE 9 11 5 6 1027.0 - 0.0
26/06:30am 10.5 9.2 9.1 91 0.7 SSE 6 7 3 4 1027.0 - 0.0
26/06:00am 11.1 9.7 9.5 90 0.8 SE 7 9 4 5 1026.7 1026.9 0.0
26/05:30am 11.4 9.7 9.7 89 0.9 NE 9 11 5 6 1026.4 - 0.0
26/05:00am 11.6 10.2 9.7 88 1.0 SE 7 9 4 5 1025.7 - 0.0
26/04:30am 11.8 10.3 10.4 91 0.7 WSW 9 13 5 7 1025.7 - 0.0
26/04:00am 13.3 12.1 11.5 89 1.0 NE 9 11 5 6 1025.8 - 0.0
26/03:30am 12.9 10.5 11.3 90 0.9 NE 15 19 8 10 1025.7 - 0.0
26/03:00am 12.4 11.3 10.6 89 0.9 ENE 7 11 4 6 1025.6 1025.9 0.0
26/02:30am 12.4 9.4 10.8 90 0.9 ENE 17 19 9 10 1025.6 - 0.0
26/02:00am 12.1 10.3 10.7 91 0.7 ENE 11 13 6 7 1026.1 - 0.0
26/01:30am 12.4 9.9 11.0 91 0.7 NE 15 19 8 10 1026.3 - 0.0
26/01:00am 11.1 8.7 10.2 94 0.5 ENE 13 17 7 9 1026.4 - 0.0
26/12:30am 10.7 8.6 9.8 94 0.5 NE 11 15 6 8 1026.4 - 0.0
26/12:00am 11.1 8.8 10.3 95 0.4 ENE 13 15 7 8 1026.6 1026.8 0.0
 
Date/Time
EST
Temp
°C
App
Temp
°C
Dew
Point
Rel
Hum
%
Delta-T
°C
Wind Press
QNH
hPa
Press
MSL
hPa
Rain
since 9 am
mm
Dir
 
Spd
km/h
Gust
km/h
Spd
kts
Gust
kts
25/11:30pm 10.5 7.8 8.9 90 0.8 ENE 13 15 7 8 1026.7 - 0.0
25/11:00pm 10.8 8.0 8.7 87 1.1 ENE 13 13 7 7 1026.8 - 0.0
25/10:30pm 12.0 9.3 10.2 89 0.9 ENE 15 17 8 9 1027.0 - 0.0
25/10:00pm 12.4 10.0 10.0 85 1.3 ENE 13 15 7 8 1027.0 - 0.0
25/09:30pm 13.1 10.7 10.1 82 1.6 ENE 13 15 7 8 1026.9 - 0.0
25/09:00pm 13.7 10.1 9.9 78 2.0 ENE 19 20 10 11 1026.8 1027.0 0.0
25/08:30pm 12.8 9.8 7.9 72 2.5 ENE 13 15 7 8 1026.7 - 0.0
25/08:00pm 14.0 11.1 8.0 67 3.0 ENE 13 15 7 8 1026.2 - 0.0
25/07:30pm 15.2 13.0 8.0 62 3.7 ENE 9 11 5 6 1025.8 - 0.0
25/07:00pm 14.2 11.0 6.8 61 3.7 ENE 13 15 7 8 1025.6 - 0.0
25/06:30pm 14.9 11.2 6.5 57 4.2 ENE 15 17 8 9 1025.1 - 0.0
25/06:00pm 15.6 11.5 6.3 54 4.6 ENE 17 19 9 10 1024.8 1025.0 0.0
25/05:30pm 17.3 13.6 6.2 48 5.6 ENE 15 17 8 9 1024.3 - 0.0
25/05:00pm 20.1 15.6 6.8 42 6.9 ENE 20 24 11 13 1024.1 - 0.0
25/04:30pm 21.3 17.4 7.2 40 7.4 NE 17 24 9 13 1023.7 - 0.0
25/04:00pm 21.9 17.5 6.6 37 8.0 ENE 19 24 10 13 1023.5 - 0.0
25/03:30pm 22.1 18.4 6.3 36 8.2 ENE 15 24 8 13 1023.3 - 0.0
25/03:00pm 22.7 18.8 6.9 36 8.3 ENE 17 22 9 12 1023.3 1023.6 0.0
25/02:30pm 22.8 19.9 6.6 35 8.5 NE 11 20 6 11 1023.3 - 0.0
25/02:00pm 22.5 18.8 6.3 35 8.4 ENE 15 22 8 12 1023.8 - 0.0
25/01:30pm 22.1 18.3 5.9 35 8.3 NE 15 20 8 11 1024.1 - 0.0
25/01:00pm 21.8 18.2 6.9 38 7.8 NE 15 22 8 12 1024.5 - 0.0
25/12:30pm 20.7 17.2 7.3 42 7.0 NE 15 24 8 13 1025.0 - 0.0
25/12:00pm 20.1 15.7 7.5 44 6.6 NE 20 30 11 16 1025.7 1026.0 0.0
25/11:30am 19.7 15.3 9.0 50 5.7 NE 22 30 12 16 1026.4 - 0.0
25/11:00am 19.0 14.3 10.6 58 4.6 NE 26 33 14 18 1026.7 - 0.0
25/10:30am 18.6 15.2 10.7 60 4.3 NE 19 22 10 12 1027.0 - 0.0
25/10:00am 17.2 13.7 10.8 66 3.5 NE 20 28 11 15 1027.2 - 0.0
25/09:30am 17.2 13.7 11.0 67 3.4 NE 20 26 11 14 1027.2 - 0.0
25/09:00am 16.2 13.0 12.0 76 2.3 NE 20 30 11 16 1026.9 1027.1 0.0
25/08:30am 14.4 11.8 12.1 86 1.3 ENE 17 20 9 11 1026.5 - 0.0
25/08:00am 12.1 9.1 10.8 92 0.7 ENE 17 20 9 11 1026.4 - 0.0
25/07:30am 10.6 7.5 10.4 99 0.1 ENE 17 19 9 10 1026.1 - 0.0
25/07:00am 7.2 3.7 7.1 99 0.0 NE 15 17 8 9 1025.7 - 0.0
25/06:30am 6.7 3.1 6.6 99 0.0 ENE 15 17 8 9 1025.5 - 0.0
25/06:25am 6.9 3.3 6.8 99 0.0 E 15 17 8 9 1025.5 - 0.0
25/06:00am 7.2 4.1 7.1 99 0.0 E 13 15 7 8 1025.5 1025.8 0.0
25/05:30am 6.4 3.4 6.1 98 0.1 E 11 13 6 7 1025.1 - 0.0
25/05:12am 6.8 4.2 6.2 96 0.3 SE 9 9 5 5 1024.9 - 0.0
25/05:00am 6.5 3.8 5.8 95 0.3 ESE 9 11 5 6 1024.9 - 0.0
25/04:30am 7.6 4.9 7.2 97 0.2 ESE 11 13 6 7 1024.7 - 0.0
25/04:00am 7.5 4.1 6.1 91 0.6 NE 13 17 7 9 1024.7 - 0.0
25/03:30am 8.9 6.0 8.0 94 0.4 ENE 13 15 7 8 1024.6 - 0.0
25/03:00am 9.6 6.0 8.5 93 0.5 ENE 17 19 9 10 1024.5 1024.7 0.0
25/02:30am 9.6 5.7 8.7 94 0.5 NE 19 19 10 10 1024.3 - 0.0
25/02:00am 9.3 6.0 8.2 93 0.5 ENE 15 17 8 9 1024.3 - 0.0
25/01:30am 9.3 6.5 8.5 95 0.4 ENE 13 17 7 9 1024.4 - 0.0
25/01:00am 9.0 6.1 8.2 95 0.4 ENE 13 17 7 9 1024.4 - 0.0
25/12:30am 9.8 7.0 8.7 93 0.6 NE 13 15 7 8 1024.5 - 0.0
25/12:00am 9.8 6.9 8.2 90 0.8 ENE 13 15 7 8 1024.6 1024.8 0.0
 
Date/Time
EST
Temp
°C
App
Temp
°C
Dew
Point
Rel
Hum
%
Delta-T
°C
Wind Press
QNH
hPa
Press
MSL
hPa
Rain
since 9 am
mm
Dir
 
Spd
km/h
Gust
km/h
Spd
kts
Gust
kts
24/11:30pm 11.1 7.7 9.0 87 1.1 ENE 17 17 9 9 1024.5 - 0.0
24/11:00pm 11.6 9.0 9.5 87 1.1 ENE 13 19 7 10 1024.8 - 0.0
24/10:30pm 11.0 7.9 8.8 86 1.1 ENE 15 17 8 9 1024.7 - 0.0
24/10:00pm 11.2 7.7 8.6 84 1.3 ENE 17 19 9 10 1024.7 - 0.0
24/09:30pm 13.0 9.1 9.6 80 1.8 NE 20 24 11 13 1024.5 - 0.0
24/09:00pm 12.9 8.8 8.8 76 2.1 ENE 20 24 11 13 1024.3 1024.5 0.0
24/08:30pm 11.7 8.2 7.4 75 2.1 ENE 15 17 8 9 1024.0 - 0.0
24/08:00pm 12.3 9.0 6.4 67 2.9 ENE 13 15 7 8 1023.6 - 0.0
24/07:30pm 11.8 8.4 6.1 68 2.7 ENE 13 15 7 8 1023.2 - 0.0
24/07:00pm 12.5 8.4 6.1 65 3.1 ENE 17 19 9 10 1022.9 - 0.0
24/06:30pm 12.4 8.2 5.6 63 3.2 E 17 19 9 10 1022.4 - 0.0
24/06:00pm 11.9 7.9 2.9 54 4.0 E 13 17 7 9 1022.0 1022.2 0.0
24/05:30pm 15.9 12.0 5.2 49 5.2 ENE 15 17 8 9 1021.6 - 0.0
24/05:00pm 18.2 13.5 5.1 42 6.5 ENE 19 22 10 12 1021.3 - 0.0
24/04:30pm 19.7 14.9 5.4 39 7.2 ENE 20 24 11 13 1021.0 - 0.0
24/04:00pm 20.5 15.7 4.9 36 7.8 ENE 19 24 10 13 1020.9 - 0.0
24/03:30pm 21.3 16.0 4.8 34 8.3 ENE 22 28 12 15 1020.7 - 0.0
24/03:00pm 19.9 16.5 4.0 35 7.7 NE 11 20 6 11 1020.6 1020.8 0.0
24/02:30pm 20.7 17.8 4.7 35 8.0 N 9 13 5 7 1020.9 - 0.0
24/02:00pm 20.7 17.0 4.3 34 8.1 NNE 13 20 7 11 1021.0 - 0.0
24/01:30pm 20.7 17.2 5.5 37 7.7 NE 13 22 7 12 1021.1 - 0.0
24/01:00pm 20.4 16.9 5.6 38 7.5 NE 13 24 7 13 1021.4 - 0.0
24/12:30pm 19.7 15.2 6.1 41 6.9 NE 19 26 10 14 1021.6 - 0.0
24/12:00pm 18.8 15.2 6.9 46 6.1 NE 15 24 8 13 1022.2 1022.4 0.0
24/11:30am 18.6 15.0 5.1 41 6.7 NE 13 19 7 10 1022.9 - 0.0
24/11:00am 18.6 14.2 6.4 45 6.2 NNE 19 28 10 15 1023.2 - 0.0
24/10:30am 18.3 14.2 8.8 54 5.0 ENE 20 30 11 16 1023.5 - 0.0
24/10:00am 17.3 12.0 8.4 56 4.7 ENE 26 33 14 18 1023.3 - 0.0
24/09:30am 16.5 11.6 8.5 59 4.2 ENE 24 30 13 16 1023.6 - 0.0
24/09:00am 15.4 10.9 10.0 70 2.9 ENE 24 32 13 17 1023.1 1023.3 0.0
24/08:30am 13.6 9.4 9.8 78 2.0 ENE 22 30 12 16 1022.6 - 0.0
24/08:00am 12.2 8.4 9.8 85 1.2 ENE 20 26 11 14 1022.4 - 0.0
24/07:30am 11.0 7.7 9.4 90 0.8 ENE 17 22 9 12 1022.5 - 0.0
24/07:00am 9.8 6.4 9.0 95 0.4 ENE 17 19 9 10 1022.5 - 0.0
24/06:30am 9.2 6.0 8.4 95 0.4 ENE 15 19 8 10 1022.5 - 0.0
24/06:00am 9.2 5.6 8.3 94 0.4 ENE 17 19 9 10 1021.9 1022.1 0.0
24/05:30am 9.0 5.6 7.8 92 0.6 ENE 15 17 8 9 1021.6 - 0.0
24/05:00am 9.9 6.8 8.7 92 0.6 ENE 15 17 8 9 1021.6 - 0.0
24/04:30am 10.1 6.9 8.5 90 0.8 ENE 15 19 8 10 1021.3 - 0.0
24/04:00am 10.7 7.2 8.8 88 1.0 ENE 17 20 9 11 1020.9 - 0.0
24/03:30am 11.1 7.7 9.0 87 1.1 ENE 17 20 9 11 1021.4 - 0.0
24/03:00am 11.3 7.5 9.0 86 1.2 ENE 19 20 10 11 1021.3 1021.5 0.0
24/02:30am 11.2 8.5 8.8 85 1.2 ENE 13 19 7 10 1021.5 - 0.0
24/02:00am 11.2 8.4 8.6 84 1.3 ENE 13 15 7 8 1021.9 - 0.0
24/01:30am 11.7 8.6 8.7 82 1.5 ENE 15 19 8 10 1022.1 - 0.0
24/01:00am 11.9 9.1 8.7 81 1.6 ENE 13 19 7 10 1022.2 - 0.0
24/12:30am 11.9 9.1 8.6 80 1.7 ENE 13 17 7 9 1022.0 - 0.0
24/12:00am 12.1 8.6 8.6 79 1.8 ENE 17 20 9 11 1022.3 1022.5 0.0
 
Date/Time
EST
Temp
°C
App
Temp
°C
Dew
Point
Rel
Hum
%
Delta-T
°C
Wind Press
QNH
hPa
Press
MSL
hPa
Rain
since 9 am
mm
Dir
 
Spd
km/h
Gust
km/h
Spd
kts
Gust
kts
23/11:30pm 11.8 8.5 8.1 78 1.9 ENE 15 19 8 10 1022.4 - 0.0
23/11:00pm 11.7 7.6 8.0 78 1.8 ENE 19 22 10 12 1022.4 - 0.0
23/10:30pm 11.9 8.2 7.8 76 2.0 ENE 17 20 9 11 1022.3 - 0.0
23/10:00pm 11.7 8.2 7.4 75 2.1 ENE 15 20 8 11 1022.5 - 0.0
23/09:30pm 11.2 7.2 6.7 74 2.2 ENE 17 20 9 11 1022.5 - 0.0

Other Formats:

Comma delimited format used in spreadsheet applications
http://www.bom.gov.au/fwo/IDQ60801/IDQ60801.94552.axf

JavaScript Object Notation format (JSON) in row-major order
http://www.bom.gov.au/fwo/IDQ60801/IDQ60801.94552.json